Adamsville, Tennessee
Current Conditions -  °F | °C
As of 5:35 PM on Saturday 22 Nov 2014 (Local Time) from KSNH Reporting Station
Clear Clear  
Wind Chill: 57°   Ceiling: Unl
Heat Index: 57°   Visibility: 10mi
Dew Point: 37°   Wind: 0mph
Humidity: 48%   Direction: NA
Pressure: 30.09"   Gusts: NA
Location:  35.24°N, 88.39°W
Report Text: KSNH 222335Z AUTO 00000KT 10SM CLR 14/03 A3009 RMK
Loading
Personal Weather Stations






























Interactive Weather Map New forecast layout! Learn more

10-Day Weather Forecast

Advertisements
Track Severe Weather on mobile